Terminal Aerodrome Forecast
Issued by NWS

Home | Current Version | Previous Version | Text Only | Print | Product List | Glossary On
Versions: 1 2 3 4 5 6 7 8 9 10 11 12 13 14 15 16 17 18 19 20 21 22 23 24 25
000
FTUS43 KGRR 050541
TAFMKG
TAF
KMKG 050541Z 0506/0606 00000KT 4SM BR SCT003
     FM050800 00000KT 1SM BR BKN003
     FM051000 00000KT 3/4SM BR BKN003
     FM051300 00000KT 2SM BR SCT003
     FM051400 23008KT P6SM VCTS SCT035CB
     FM060000 18003KT 5SM BR SKC=

USA.gov is the U.S. government's official web portal to all federal, state and local government web resources and services.